sensor_id;sensor_type;location;lat;lon;timestamp;temperature;humidity
8180;DHT22;4131;48.810;11.892;2023-04-25T00:01:46;5.60;99.90
8180;DHT22;4131;48.810;11.892;2023-04-25T00:04:16;6.40;99.90
8180;DHT22;4131;48.810;11.892;2023-04-25T00:06:44;6.30;99.90
8180;DHT22;4131;48.810;11.892;2023-04-25T00:09:12;6.50;99.90
8180;DHT22;4131;48.810;11.892;2023-04-25T00:11:40;5.50;99.90
8180;DHT22;4131;48.810;11.892;2023-04-25T00:14:10;5.50;99.90
8180;DHT22;4131;48.810;11.892;2023-04-25T00:16:37;5.40;99.90
8180;DHT22;4131;48.810;11.892;2023-04-25T00:19:08;5.40;99.90
8180;DHT22;4131;48.810;11.892;2023-04-25T00:21:37;5.50;99.90
8180;DHT22;4131;48.810;11.892;2023-04-25T00:24:07;5.40;99.90
8180;DHT22;4131;48.810;11.892;2023-04-25T00:26:35;5.40;99.90
8180;DHT22;4131;48.810;11.892;2023-04-25T00:29:03;5.40;99.90
8180;DHT22;4131;48.810;11.892;2023-04-25T00:31:31;5.40;99.90
8180;DHT22;4131;48.810;11.892;2023-04-25T00:33:59;5.40;99.90
8180;DHT22;4131;48.810;11.892;2023-04-25T00:36:28;5.40;99.90
8180;DHT22;4131;48.810;11.892;2023-04-25T00:38:58;5.30;99.90
8180;DHT22;4131;48.810;11.892;2023-04-25T00:41:26;5.30;99.90
8180;DHT22;4131;48.810;11.892;2023-04-25T00:43:54;5.30;99.90
8180;DHT22;4131;48.810;11.892;2023-04-25T00:46:23;5.30;99.90
8180;DHT22;4131;48.810;11.892;2023-04-25T00:48:51;5.30;99.90
8180;DHT22;4131;48.810;11.892;2023-04-25T00:51:20;5.30;99.90
8180;DHT22;4131;48.810;11.892;2023-04-25T00:53:49;5.30;99.90
8180;DHT22;4131;48.810;11.892;2023-04-25T00:56:19;5.30;99.90
8180;DHT22;4131;48.810;11.892;2023-04-25T00:58:49;5.40;99.90
8180;DHT22;4131;48.810;11.892;2023-04-25T01:01:19;5.40;99.90
8180;DHT22;4131;48.810;11.892;2023-04-25T01:03:49;3.90;99.90
8180;DHT22;4131;48.810;11.892;2023-04-25T01:06:18;5.40;99.90
8180;DHT22;4131;48.810;11.892;2023-04-25T01:08:46;5.30;99.90
8180;DHT22;4131;48.810;11.892;2023-04-25T01:11:14;5.30;99.90
8180;DHT22;4131;48.810;11.892;2023-04-25T01:13:43;7.20;99.90
8180;DHT22;4131;48.810;11.892;2023-04-25T01:16:12;6.40;99.90
8180;DHT22;4131;48.810;11.892;2023-04-25T01:18:40;5.10;99.90
8180;DHT22;4131;48.810;11.892;2023-04-25T01:21:11;5.10;99.90
8180;DHT22;4131;48.810;11.892;2023-04-25T01:23:40;5.10;99.90
8180;DHT22;4131;48.810;11.892;2023-04-25T01:26:09;5.10;99.90
8180;DHT22;4131;48.810;11.892;2023-04-25T01:28:38;5.10;99.90
8180;DHT22;4131;48.810;11.892;2023-04-25T01:31:08;5.10;99.90
8180;DHT22;4131;48.810;11.892;2023-04-25T01:33:37;5.10;99.90
8180;DHT22;4131;48.810;11.892;2023-04-25T01:36:06;5.20;99.90
8180;DHT22;4131;48.810;11.892;2023-04-25T01:38:35;5.20;99.90
8180;DHT22;4131;48.810;11.892;2023-04-25T01:41:03;5.60;99.90
8180;DHT22;4131;48.810;11.892;2023-04-25T01:43:32;5.20;99.90
8180;DHT22;4131;48.810;11.892;2023-04-25T01:46:00;5.20;99.90
8180;DHT22;4131;48.810;11.892;2023-04-25T01:48:29;5.30;99.90
8180;DHT22;4131;48.810;11.892;2023-04-25T01:50:57;5.30;99.90
8180;DHT22;4131;48.810;11.892;2023-04-25T01:53:25;5.40;99.90
8180;DHT22;4131;48.810;11.892;2023-04-25T01:55:55;6.20;99.90
8180;DHT22;4131;48.810;11.892;2023-04-25T01:58:23;5.50;99.90
8180;DHT22;4131;48.810;11.892;2023-04-25T02:00:51;5.50;99.90
8180;DHT22;4131;48.810;11.892;2023-04-25T02:03:19;5.50;99.90
8180;DHT22;4131;48.810;11.892;2023-04-25T02:05:47;6.10;99.90
8180;DHT22;4131;48.810;11.892;2023-04-25T02:08:16;5.60;99.90
8180;DHT22;4131;48.810;11.892;2023-04-25T02:10:44;5.60;99.90
8180;DHT22;4131;48.810;11.892;2023-04-25T02:13:14;5.60;99.90
8180;DHT22;4131;48.810;11.892;2023-04-25T02:15:42;5.60;99.90
8180;DHT22;4131;48.810;11.892;2023-04-25T02:18:10;5.60;99.90
8180;DHT22;4131;48.810;11.892;2023-04-25T02:20:38;5.90;99.90
8180;DHT22;4131;48.810;11.892;2023-04-25T02:23:06;5.60;99.90
8180;DHT22;4131;48.810;11.892;2023-04-25T02:25:35;5.60;99.90
8180;DHT22;4131;48.810;11.892;2023-04-25T02:28:03;5.90;99.90
8180;DHT22;4131;48.810;11.892;2023-04-25T02:30:32;5.60;99.90
8180;DHT22;4131;48.810;11.892;2023-04-25T02:33:02;5.60;99.90
8180;DHT22;4131;48.810;11.892;2023-04-25T02:35:30;5.60;99.90
8180;DHT22;4131;48.810;11.892;2023-04-25T02:37:58;5.80;99.90
8180;DHT22;4131;48.810;11.892;2023-04-25T02:40:26;5.60;99.90
8180;DHT22;4131;48.810;11.892;2023-04-25T02:42:54;5.60;99.90
8180;DHT22;4131;48.810;11.892;2023-04-25T02:45:22;5.60;99.90
8180;DHT22;4131;48.810;11.892;2023-04-25T02:47:51;6.70;99.90
8180;DHT22;4131;48.810;11.892;2023-04-25T02:50:20;5.60;99.90
8180;DHT22;4131;48.810;11.892;2023-04-25T02:52:48;6.50;99.90
8180;DHT22;4131;48.810;11.892;2023-04-25T02:55:16;6.40;99.90
8180;DHT22;4131;48.810;11.892;2023-04-25T02:57:44;5.60;99.90
8180;DHT22;4131;48.810;11.892;2023-04-25T03:00:13;5.70;99.90
8180;DHT22;4131;48.810;11.892;2023-04-25T03:02:41;5.60;99.90
8180;DHT22;4131;48.810;11.892;2023-04-25T03:05:11;5.60;99.90
8180;DHT22;4131;48.810;11.892;2023-04-25T03:07:39;5.60;99.90
8180;DHT22;4131;48.810;11.892;2023-04-25T03:10:08;6.40;99.90
8180;DHT22;4131;48.810;11.892;2023-04-25T03:12:36;5.60;99.90
8180;DHT22;4131;48.810;11.892;2023-04-25T03:15:05;5.60;99.90
8180;DHT22;4131;48.810;11.892;2023-04-25T03:17:33;5.60;99.90
8180;DHT22;4131;48.810;11.892;2023-04-25T03:20:01;5.60;99.90
8180;DHT22;4131;48.810;11.892;2023-04-25T03:22:33;5.60;99.90
8180;DHT22;4131;48.810;11.892;2023-04-25T03:25:01;7.00;99.90
8180;DHT22;4131;48.810;11.892;2023-04-25T03:27:29;5.60;99.90
8180;DHT22;4131;48.810;11.892;2023-04-25T03:29:57;5.60;99.90
8180;DHT22;4131;48.810;11.892;2023-04-25T03:32:25;5.60;99.90
8180;DHT22;4131;48.810;11.892;2023-04-25T03:34:53;7.10;99.90
8180;DHT22;4131;48.810;11.892;2023-04-25T03:37:22;5.70;99.90
8180;DHT22;4131;48.810;11.892;2023-04-25T03:39:51;5.60;99.90
8180;DHT22;4131;48.810;11.892;2023-04-25T03:42:19;5.90;99.90
8180;DHT22;4131;48.810;11.892;2023-04-25T03:44:49;5.60;99.90
8180;DHT22;4131;48.810;11.892;2023-04-25T03:47:17;5.50;99.90
8180;DHT22;4131;48.810;11.892;2023-04-25T03:49:45;5.50;99.90
8180;DHT22;4131;48.810;11.892;2023-04-25T03:52:13;5.50;99.90
8180;DHT22;4131;48.810;11.892;2023-04-25T03:54:42;5.40;99.90
8180;DHT22;4131;48.810;11.892;2023-04-25T03:57:11;5.40;99.90
8180;DHT22;4131;48.810;11.892;2023-04-25T03:59:39;5.40;99.90
8180;DHT22;4131;48.810;11.892;2023-04-25T04:02:07;6.40;99.90
8180;DHT22;4131;48.810;11.892;2023-04-25T04:04:36;5.30;99.90
8180;DHT22;4131;48.810;11.892;2023-04-25T04:07:04;6.50;99.90
8180;DHT22;4131;48.810;11.892;2023-04-25T04:09:32;5.40;99.90
8180;DHT22;4131;48.810;11.892;2023-04-25T04:12:00;5.40;99.90
8180;DHT22;4131;48.810;11.892;2023-04-25T04:14:30;7.30;99.90
8180;DHT22;4131;48.810;11.892;2023-04-25T04:16:58;5.50;99.90
8180;DHT22;4131;48.810;11.892;2023-04-25T04:19:26;5.60;99.90
8180;DHT22;4131;48.810;11.892;2023-04-25T04:21:54;5.60;99.90
8180;DHT22;4131;48.810;11.892;2023-04-25T04:24:22;5.60;99.90
8180;DHT22;4131;48.810;11.892;2023-04-25T04:26:50;5.60;99.90
8180;DHT22;4131;48.810;11.892;2023-04-25T04:29:18;5.60;99.90
8180;DHT22;4131;48.810;11.892;2023-04-25T04:31:50;5.60;99.90
8180;DHT22;4131;48.810;11.892;2023-04-25T04:34:19;5.60;99.90
8180;DHT22;4131;48.810;11.892;2023-04-25T04:36:47;5.60;99.90
8180;DHT22;4131;48.810;11.892;2023-04-25T04:39:15;5.70;99.90
8180;DHT22;4131;48.810;11.892;2023-04-25T04:41:43;5.70;99.90
8180;DHT22;4131;48.810;11.892;2023-04-25T04:44:12;5.70;99.90
8180;DHT22;4131;48.810;11.892;2023-04-25T04:46:41;5.70;99.90
8180;DHT22;4131;48.810;11.892;2023-04-25T04:49:11;5.70;99.90
8180;DHT22;4131;48.810;11.892;2023-04-25T04:51:40;5.70;99.90
8180;DHT22;4131;48.810;11.892;2023-04-25T04:54:11;5.70;99.90
8180;DHT22;4131;48.810;11.892;2023-04-25T04:56:39;5.80;99.90
8180;DHT22;4131;48.810;11.892;2023-04-25T04:59:08;6.40;99.90
8180;DHT22;4131;48.810;11.892;2023-04-25T05:01:37;5.70;99.90
8180;DHT22;4131;48.810;11.892;2023-04-25T05:04:05;5.70;99.90
8180;DHT22;4131;48.810;11.892;2023-04-25T05:06:35;5.70;99.90
8180;DHT22;4131;48.810;11.892;2023-04-25T05:09:03;5.70;99.90
8180;DHT22;4131;48.810;11.892;2023-04-25T05:11:31;5.70;99.90
8180;DHT22;4131;48.810;11.892;2023-04-25T05:13:59;5.80;99.90
8180;DHT22;4131;48.810;11.892;2023-04-25T05:16:27;5.60;99.90
8180;DHT22;4131;48.810;11.892;2023-04-25T05:18:55;5.70;99.90
8180;DHT22;4131;48.810;11.892;2023-04-25T05:21:23;5.70;99.90
8180;DHT22;4131;48.810;11.892;2023-04-25T05:23:53;5.70;99.90
8180;DHT22;4131;48.810;11.892;2023-04-25T05:26:22;5.90;99.90
8180;DHT22;4131;48.810;11.892;2023-04-25T05:28:50;6.00;99.90
8180;DHT22;4131;48.810;11.892;2023-04-25T05:31:18;6.20;99.90
8180;DHT22;4131;48.810;11.892;2023-04-25T05:33:46;6.30;99.90
8180;DHT22;4131;48.810;11.892;2023-04-25T05:36:15;6.50;99.90
8180;DHT22;4131;48.810;11.892;2023-04-25T05:38:42;6.80;99.90
8180;DHT22;4131;48.810;11.892;2023-04-25T05:41:12;6.80;99.90
8180;DHT22;4131;48.810;11.892;2023-04-25T05:43:40;6.80;99.90
8180;DHT22;4131;48.810;11.892;2023-04-25T05:46:11;7.00;99.90
8180;DHT22;4131;48.810;11.892;2023-04-25T05:48:39;7.10;99.90
8180;DHT22;4131;48.810;11.892;2023-04-25T05:51:08;7.40;99.90
8180;DHT22;4131;48.810;11.892;2023-04-25T05:53:36;7.70;99.90
8180;DHT22;4131;48.810;11.892;2023-04-25T05:56:04;8.00;99.90
8180;DHT22;4131;48.810;11.892;2023-04-25T05:58:33;8.20;99.90
8180;DHT22;4131;48.810;11.892;2023-04-25T06:01:02;8.20;99.90
8180;DHT22;4131;48.810;11.892;2023-04-25T06:03:30;8.00;99.90
8180;DHT22;4131;48.810;11.892;2023-04-25T06:05:58;8.40;99.90
8180;DHT22;4131;48.810;11.892;2023-04-25T06:08:27;7.90;99.90
8180;DHT22;4131;48.810;11.892;2023-04-25T06:10:55;7.90;99.90
8180;DHT22;4131;48.810;11.892;2023-04-25T06:13:23;8.30;99.90
8180;DHT22;4131;48.810;11.892;2023-04-25T06:15:52;8.80;99.90
8180;DHT22;4131;48.810;11.892;2023-04-25T06:18:20;9.10;99.90
8180;DHT22;4131;48.810;11.892;2023-04-25T06:20:48;8.40;99.90
8180;DHT22;4131;48.810;11.892;2023-04-25T06:23:16;8.60;99.90
8180;DHT22;4131;48.810;11.892;2023-04-25T06:25:44;8.60;99.90
8180;DHT22;4131;48.810;11.892;2023-04-25T06:28:12;8.40;99.90
8180;DHT22;4131;48.810;11.892;2023-04-25T06:30:40;8.30;99.90
8180;DHT22;4131;48.810;11.892;2023-04-25T06:33:09;8.30;99.90
8180;DHT22;4131;48.810;11.892;2023-04-25T06:35:37;8.90;99.90
8180;DHT22;4131;48.810;11.892;2023-04-25T06:38:06;9.20;99.90
8180;DHT22;4131;48.810;11.892;2023-04-25T06:40:34;9.60;99.90
8180;DHT22;4131;48.810;11.892;2023-04-25T06:43:02;9.30;99.90
8180;DHT22;4131;48.810;11.892;2023-04-25T06:45:30;9.40;99.90
8180;DHT22;4131;48.810;11.892;2023-04-25T06:47:58;9.30;99.90
8180;DHT22;4131;48.810;11.892;2023-04-25T06:50:27;9.30;99.90
8180;DHT22;4131;48.810;11.892;2023-04-25T06:52:55;9.60;99.90
8180;DHT22;4131;48.810;11.892;2023-04-25T06:55:23;9.30;99.90
8180;DHT22;4131;48.810;11.892;2023-04-25T06:57:51;9.70;99.90
8180;DHT22;4131;48.810;11.892;2023-04-25T07:00:20;9.00;99.90
8180;DHT22;4131;48.810;11.892;2023-04-25T07:02:48;8.70;99.90
8180;DHT22;4131;48.810;11.892;2023-04-25T07:05:17;8.50;99.90
8180;DHT22;4131;48.810;11.892;2023-04-25T07:07:46;8.40;99.90
8180;DHT22;4131;48.810;11.892;2023-04-25T07:10:14;8.40;99.90
8180;DHT22;4131;48.810;11.892;2023-04-25T07:12:42;8.50;99.90
8180;DHT22;4131;48.810;11.892;2023-04-25T07:15:10;9.00;99.90
8180;DHT22;4131;48.810;11.892;2023-04-25T07:17:38;9.20;99.90
8180;DHT22;4131;48.810;11.892;2023-04-25T07:20:07;9.40;99.90
8180;DHT22;4131;48.810;11.892;2023-04-25T07:22:36;9.50;99.90
8180;DHT22;4131;48.810;11.892;2023-04-25T07:25:07;10.00;99.90
8180;DHT22;4131;48.810;11.892;2023-04-25T07:27:35;9.30;99.90
8180;DHT22;4131;48.810;11.892;2023-04-25T07:30:04;10.40;99.90
8180;DHT22;4131;48.810;11.892;2023-04-25T07:32:32;9.90;99.90
8180;DHT22;4131;48.810;11.892;2023-04-25T07:35:01;10.20;99.90
8180;DHT22;4131;48.810;11.892;2023-04-25T07:37:30;10.60;99.90
8180;DHT22;4131;48.810;11.892;2023-04-25T07:39:58;10.70;99.90
8180;DHT22;4131;48.810;11.892;2023-04-25T07:42:28;10.00;99.90
8180;DHT22;4131;48.810;11.892;2023-04-25T07:44:56;9.80;99.90
8180;DHT22;4131;48.810;11.892;2023-04-25T07:47:24;9.70;99.90
8180;DHT22;4131;48.810;11.892;2023-04-25T07:49:52;11.60;99.90
8180;DHT22;4131;48.810;11.892;2023-04-25T07:52:20;10.40;99.90
8180;DHT22;4131;48.810;11.892;2023-04-25T07:54:49;10.20;99.90
8180;DHT22;4131;48.810;11.892;2023-04-25T07:57:18;10.10;99.90
8180;DHT22;4131;48.810;11.892;2023-04-25T07:59:48;10.50;99.90
8180;DHT22;4131;48.810;11.892;2023-04-25T08:02:16;12.00;99.90
8180;DHT22;4131;48.810;11.892;2023-04-25T08:04:44;10.80;99.90
8180;DHT22;4131;48.810;11.892;2023-04-25T08:07:13;11.20;99.90
8180;DHT22;4131;48.810;11.892;2023-04-25T08:09:41;11.40;99.90
8180;DHT22;4131;48.810;11.892;2023-04-25T08:12:09;11.40;99.90
8180;DHT22;4131;48.810;11.892;2023-04-25T08:14:37;13.60;99.90
8180;DHT22;4131;48.810;11.892;2023-04-25T08:17:07;13.40;99.90
8180;DHT22;4131;48.810;11.892;2023-04-25T08:19:36;13.40;99.90
8180;DHT22;4131;48.810;11.892;2023-04-25T08:22:04;13.50;99.90
8180;DHT22;4131;48.810;11.892;2023-04-25T08:24:32;12.60;99.90
8180;DHT22;4131;48.810;11.892;2023-04-25T08:27:02;12.80;99.90
8180;DHT22;4131;48.810;11.892;2023-04-25T08:29:30;13.90;99.90
8180;DHT22;4131;48.810;11.892;2023-04-25T08:31:58;14.70;99.90
8180;DHT22;4131;48.810;11.892;2023-04-25T08:34:27;12.70;99.90
8180;DHT22;4131;48.810;11.892;2023-04-25T08:36:56;12.00;99.90
8180;DHT22;4131;48.810;11.892;2023-04-25T08:39:24;13.90;99.90
8180;DHT22;4131;48.810;11.892;2023-04-25T08:41:53;11.80;99.90
8180;DHT22;4131;48.810;11.892;2023-04-25T08:44:21;13.50;99.90
8180;DHT22;4131;48.810;11.892;2023-04-25T08:46:51;12.50;99.90
8180;DHT22;4131;48.810;11.892;2023-04-25T08:49:20;14.30;99.90
8180;DHT22;4131;48.810;11.892;2023-04-25T08:51:50;13.70;99.90
8180;DHT22;4131;48.810;11.892;2023-04-25T08:54:21;13.30;99.90
8180;DHT22;4131;48.810;11.892;2023-04-25T08:57:02;13.20;99.90
8180;DHT22;4131;48.810;11.892;2023-04-25T08:59:32;12.00;99.90
8180;DHT22;4131;48.810;11.892;2023-04-25T09:02:03;12.80;99.90
8180;DHT22;4131;48.810;11.892;2023-04-25T09:04:31;11.20;99.90
8180;DHT22;4131;48.810;11.892;2023-04-25T09:07:01;11.30;99.90
8180;DHT22;4131;48.810;11.892;2023-04-25T09:09:29;12.60;99.90
8180;DHT22;4131;48.810;11.892;2023-04-25T09:11:57;11.60;99.90
8180;DHT22;4131;48.810;11.892;2023-04-25T09:14:26;11.60;99.90
8180;DHT22;4131;48.810;11.892;2023-04-25T09:17:03;11.90;99.90
8180;DHT22;4131;48.810;11.892;2023-04-25T09:19:33;12.00;99.90
8180;DHT22;4131;48.810;11.892;2023-04-25T09:22:09;11.90;99.90
8180;DHT22;4131;48.810;11.892;2023-04-25T09:24:39;11.80;99.90
8180;DHT22;4131;48.810;11.892;2023-04-25T09:27:12;12.10;99.90
8180;DHT22;4131;48.810;11.892;2023-04-25T09:29:41;12.90;99.90
8180;DHT22;4131;48.810;11.892;2023-04-25T09:32:16;14.50;99.90
8180;DHT22;4131;48.810;11.892;2023-04-25T09:34:45;13.50;99.90
8180;DHT22;4131;48.810;11.892;2023-04-25T09:37:19;13.70;99.90
8180;DHT22;4131;48.810;11.892;2023-04-25T09:39:48;13.60;99.90
8180;DHT22;4131;48.810;11.892;2023-04-25T09:42:17;13.30;99.90
8180;DHT22;4131;48.810;11.892;2023-04-25T09:44:46;12.60;99.90
8180;DHT22;4131;48.810;11.892;2023-04-25T09:47:15;12.50;99.90
8180;DHT22;4131;48.810;11.892;2023-04-25T09:49:44;12.40;99.90
8180;DHT22;4131;48.810;11.892;2023-04-25T09:52:18;13.00;99.90
8180;DHT22;4131;48.810;11.892;2023-04-25T09:54:50;11.70;99.90
8180;DHT22;4131;48.810;11.892;2023-04-25T09:57:19;11.80;99.90
8180;DHT22;4131;48.810;11.892;2023-04-25T09:59:49;10.90;99.90
8180;DHT22;4131;48.810;11.892;2023-04-25T10:02:19;10.60;99.90
8180;DHT22;4131;48.810;11.892;2023-04-25T10:04:49;10.30;99.90
8180;DHT22;4131;48.810;11.892;2023-04-25T10:07:22;10.40;99.90
8180;DHT22;4131;48.810;11.892;2023-04-25T10:09:57;10.40;99.90
8180;DHT22;4131;48.810;11.892;2023-04-25T10:12:27;9.90;99.90
8180;DHT22;4131;48.810;11.892;2023-04-25T10:14:55;10.20;99.90
8180;DHT22;4131;48.810;11.892;2023-04-25T10:17:23;9.70;99.90
8180;DHT22;4131;48.810;11.892;2023-04-25T10:19:51;9.50;99.90
8180;DHT22;4131;48.810;11.892;2023-04-25T10:22:29;9.50;99.90
8180;DHT22;4131;48.810;11.892;2023-04-25T10:24:57;10.50;99.90
8180;DHT22;4131;48.810;11.892;2023-04-25T10:27:27;12.00;99.90
8180;DHT22;4131;48.810;11.892;2023-04-25T10:30:00;12.80;99.90
8180;DHT22;4131;48.810;11.892;2023-04-25T10:32:31;13.50;99.90
8180;DHT22;4131;48.810;11.892;2023-04-25T10:35:10;15.10;99.90
8180;DHT22;4131;48.810;11.892;2023-04-25T10:37:56;15.40;99.90
8180;DHT22;4131;48.810;11.892;2023-04-25T10:40:25;16.40;99.90
8180;DHT22;4131;48.810;11.892;2023-04-25T10:42:54;16.50;99.90
8180;DHT22;4131;48.810;11.892;2023-04-25T10:45:22;16.50;99.90
8180;DHT22;4131;48.810;11.892;2023-04-25T10:47:50;14.50;99.90
8180;DHT22;4131;48.810;11.892;2023-04-25T10:50:18;14.00;99.90
8180;DHT22;4131;48.810;11.892;2023-04-25T10:52:48;12.40;99.90
8180;DHT22;4131;48.810;11.892;2023-04-25T10:55:16;11.60;99.90
8180;DHT22;4131;48.810;11.892;2023-04-25T10:57:47;11.70;99.90
8180;DHT22;4131;48.810;11.892;2023-04-25T11:00:18;13.50;99.90
8180;DHT22;4131;48.810;11.892;2023-04-25T11:02:51;12.30;99.90
8180;DHT22;4131;48.810;11.892;2023-04-25T11:05:22;12.80;99.90
8180;DHT22;4131;48.810;11.892;2023-04-25T11:07:54;13.10;99.90
8180;DHT22;4131;48.810;11.892;2023-04-25T11:10:27;13.60;99.90
8180;DHT22;4131;48.810;11.892;2023-04-25T11:12:56;14.10;99.90
8180;DHT22;4131;48.810;11.892;2023-04-25T11:15:24;13.50;99.90
8180;DHT22;4131;48.810;11.892;2023-04-25T11:17:53;13.30;99.90
8180;DHT22;4131;48.810;11.892;2023-04-25T11:20:22;13.10;99.90
8180;DHT22;4131;48.810;11.892;2023-04-25T11:22:57;13.30;99.90
8180;DHT22;4131;48.810;11.892;2023-04-25T11:25:26;13.70;99.90
8180;DHT22;4131;48.810;11.892;2023-04-25T11:27:56;13.50;99.90
8180;DHT22;4131;48.810;11.892;2023-04-25T11:30:26;13.70;99.90
8180;DHT22;4131;48.810;11.892;2023-04-25T11:32:54;16.10;99.90
8180;DHT22;4131;48.810;11.892;2023-04-25T11:35:23;15.40;99.90
8180;DHT22;4131;48.810;11.892;2023-04-25T11:37:53;15.80;99.90
8180;DHT22;4131;48.810;11.892;2023-04-25T11:40:24;16.60;99.90
8180;DHT22;4131;48.810;11.892;2023-04-25T11:42:52;17.50;99.90
8180;DHT22;4131;48.810;11.892;2023-04-25T11:45:23;16.60;99.90
8180;DHT22;4131;48.810;11.892;2023-04-25T11:47:52;13.30;99.90
8180;DHT22;4131;48.810;11.892;2023-04-25T11:50:20;15.00;99.90
8180;DHT22;4131;48.810;11.892;2023-04-25T11:52:48;15.70;99.90
8180;DHT22;4131;48.810;11.892;2023-04-25T11:55:19;16.90;99.90
8180;DHT22;4131;48.810;11.892;2023-04-25T11:57:49;16.90;99.90
8180;DHT22;4131;48.810;11.892;2023-04-25T12:00:19;17.20;99.90
8180;DHT22;4131;48.810;11.892;2023-04-25T12:02:51;16.70;99.90
8180;DHT22;4131;48.810;11.892;2023-04-25T12:05:23;16.80;99.90
8180;DHT22;4131;48.810;11.892;2023-04-25T12:08:10;16.10;99.90
8180;DHT22;4131;48.810;11.892;2023-04-25T12:10:41;16.50;99.90
8180;DHT22;4131;48.810;11.892;2023-04-25T12:13:22;17.10;99.90
8180;DHT22;4131;48.810;11.892;2023-04-25T12:15:50;17.80;99.90
8180;DHT22;4131;48.810;11.892;2023-04-25T12:18:19;18.30;99.90
8180;DHT22;4131;48.810;11.892;2023-04-25T12:20:48;18.00;99.90
8180;DHT22;4131;48.810;11.892;2023-04-25T12:23:16;17.30;99.90
8180;DHT22;4131;48.810;11.892;2023-04-25T12:25:45;17.50;99.90
8180;DHT22;4131;48.810;11.892;2023-04-25T12:28:15;17.30;99.90
8180;DHT22;4131;48.810;11.892;2023-04-25T12:30:58;17.10;99.90
8180;DHT22;4131;48.810;11.892;2023-04-25T12:33:27;16.10;99.90
8180;DHT22;4131;48.810;11.892;2023-04-25T12:35:56;15.40;99.90
8180;DHT22;4131;48.810;11.892;2023-04-25T12:38:25;14.90;99.90
8180;DHT22;4131;48.810;11.892;2023-04-25T12:40:54;14.40;99.90
8180;DHT22;4131;48.810;11.892;2023-04-25T12:43:22;14.00;99.90
8180;DHT22;4131;48.810;11.892;2023-04-25T12:45:52;13.70;99.90
8180;DHT22;4131;48.810;11.892;2023-04-25T12:48:22;13.60;99.90
8180;DHT22;4131;48.810;11.892;2023-04-25T12:50:51;13.30;99.90
8180;DHT22;4131;48.810;11.892;2023-04-25T12:53:20;13.90;99.90
8180;DHT22;4131;48.810;11.892;2023-04-25T12:55:49;13.30;99.90
8180;DHT22;4131;48.810;11.892;2023-04-25T12:58:18;13.20;99.90
8180;DHT22;4131;48.810;11.892;2023-04-25T13:00:46;12.90;99.90
8180;DHT22;4131;48.810;11.892;2023-04-25T13:03:15;13.20;99.90
8180;DHT22;4131;48.810;11.892;2023-04-25T13:05:44;14.90;99.90
8180;DHT22;4131;48.810;11.892;2023-04-25T13:08:12;13.60;99.90
8180;DHT22;4131;48.810;11.892;2023-04-25T13:10:41;13.60;99.90
8180;DHT22;4131;48.810;11.892;2023-04-25T13:13:09;13.50;99.90
8180;DHT22;4131;48.810;11.892;2023-04-25T13:15:37;13.80;99.90
8180;DHT22;4131;48.810;11.892;2023-04-25T13:18:05;12.60;99.90
8180;DHT22;4131;48.810;11.892;2023-04-25T13:20:37;12.50;99.90
8180;DHT22;4131;48.810;11.892;2023-04-25T13:23:08;10.50;99.90
8180;DHT22;4131;48.810;11.892;2023-04-25T13:25:38;12.20;99.90
8180;DHT22;4131;48.810;11.892;2023-04-25T13:28:07;10.40;99.90
8180;DHT22;4131;48.810;11.892;2023-04-25T13:30:36;12.30;99.90
8180;DHT22;4131;48.810;11.892;2023-04-25T13:33:05;12.10;99.90
8180;DHT22;4131;48.810;11.892;2023-04-25T13:35:35;12.80;99.90
8180;DHT22;4131;48.810;11.892;2023-04-25T13:38:03;12.10;99.90
8180;DHT22;4131;48.810;11.892;2023-04-25T13:40:33;12.00;99.90
8180;DHT22;4131;48.810;11.892;2023-04-25T13:43:01;12.10;99.90
8180;DHT22;4131;48.810;11.892;2023-04-25T13:45:29;12.30;99.90
8180;DHT22;4131;48.810;11.892;2023-04-25T13:47:59;12.50;99.90
8180;DHT22;4131;48.810;11.892;2023-04-25T13:50:27;12.30;99.90
8180;DHT22;4131;48.810;11.892;2023-04-25T13:52:55;12.20;99.90
8180;DHT22;4131;48.810;11.892;2023-04-25T13:55:23;12.80;99.90
8180;DHT22;4131;48.810;11.892;2023-04-25T13:57:53;12.20;99.90
8180;DHT22;4131;48.810;11.892;2023-04-25T14:00:21;13.40;99.90
8180;DHT22;4131;48.810;11.892;2023-04-25T14:02:49;11.80;99.90
8180;DHT22;4131;48.810;11.892;2023-04-25T14:05:18;12.40;99.90
8180;DHT22;4131;48.810;11.892;2023-04-25T14:07:46;12.70;99.90
8180;DHT22;4131;48.810;11.892;2023-04-25T14:10:14;13.80;99.90
8180;DHT22;4131;48.810;11.892;2023-04-25T14:12:42;14.50;99.90
8180;DHT22;4131;48.810;11.892;2023-04-25T14:15:12;14.40;99.90
8180;DHT22;4131;48.810;11.892;2023-04-25T14:17:40;13.80;99.90
8180;DHT22;4131;48.810;11.892;2023-04-25T14:20:08;13.90;99.90
8180;DHT22;4131;48.810;11.892;2023-04-25T14:22:37;14.20;99.90
8180;DHT22;4131;48.810;11.892;2023-04-25T14:25:09;14.10;99.90
8180;DHT22;4131;48.810;11.892;2023-04-25T14:27:37;14.20;99.90
8180;DHT22;4131;48.810;11.892;2023-04-25T14:30:06;14.20;99.90
8180;DHT22;4131;48.810;11.892;2023-04-25T14:32:37;13.90;99.90
8180;DHT22;4131;48.810;11.892;2023-04-25T14:35:06;13.60;99.90
8180;DHT22;4131;48.810;11.892;2023-04-25T14:37:34;13.30;99.90
8180;DHT22;4131;48.810;11.892;2023-04-25T14:40:03;13.10;99.90
8180;DHT22;4131;48.810;11.892;2023-04-25T14:42:31;12.80;99.90
8180;DHT22;4131;48.810;11.892;2023-04-25T14:45:01;12.60;99.90
8180;DHT22;4131;48.810;11.892;2023-04-25T14:47:29;12.70;99.90
8180;DHT22;4131;48.810;11.892;2023-04-25T14:49:59;12.50;99.90
8180;DHT22;4131;48.810;11.892;2023-04-25T14:52:28;12.50;99.90
8180;DHT22;4131;48.810;11.892;2023-04-25T14:54:57;12.40;99.90
8180;DHT22;4131;48.810;11.892;2023-04-25T14:57:26;12.30;99.90
8180;DHT22;4131;48.810;11.892;2023-04-25T14:59:54;12.20;99.90
8180;DHT22;4131;48.810;11.892;2023-04-25T15:02:23;12.20;99.90
8180;DHT22;4131;48.810;11.892;2023-04-25T15:04:51;12.20;99.90
8180;DHT22;4131;48.810;11.892;2023-04-25T15:07:21;12.20;99.90
8180;DHT22;4131;48.810;11.892;2023-04-25T15:09:49;12.30;99.90
8180;DHT22;4131;48.810;11.892;2023-04-25T15:12:17;12.20;99.90
8180;DHT22;4131;48.810;11.892;2023-04-25T15:14:46;12.00;99.90
8180;DHT22;4131;48.810;11.892;2023-04-25T15:17:14;12.80;99.90
8180;DHT22;4131;48.810;11.892;2023-04-25T15:19:42;12.70;99.90
8180;DHT22;4131;48.810;11.892;2023-04-25T15:22:10;12.70;99.90
8180;DHT22;4131;48.810;11.892;2023-04-25T15:24:39;13.70;99.90
8180;DHT22;4131;48.810;11.892;2023-04-25T15:27:07;12.00;99.90
8180;DHT22;4131;48.810;11.892;2023-04-25T15:29:35;12.00;99.90
8180;DHT22;4131;48.810;11.892;2023-04-25T15:32:04;12.10;99.90
8180;DHT22;4131;48.810;11.892;2023-04-25T15:34:32;11.90;99.90
8180;DHT22;4131;48.810;11.892;2023-04-25T15:37:02;13.40;99.90
8180;DHT22;4131;48.810;11.892;2023-04-25T15:39:30;13.30;99.90
8180;DHT22;4131;48.810;11.892;2023-04-25T15:42:00;11.40;99.90
8180;DHT22;4131;48.810;11.892;2023-04-25T15:44:28;11.40;99.90
8180;DHT22;4131;48.810;11.892;2023-04-25T15:46:56;11.30;99.90
8180;DHT22;4131;48.810;11.892;2023-04-25T15:49:24;13.60;99.90
8180;DHT22;4131;48.810;11.892;2023-04-25T15:51:52;12.70;99.90
8180;DHT22;4131;48.810;11.892;2023-04-25T15:54:21;11.50;99.90
8180;DHT22;4131;48.810;11.892;2023-04-25T15:56:49;11.40;99.90
8180;DHT22;4131;48.810;11.892;2023-04-25T15:59:18;11.60;99.90
8180;DHT22;4131;48.810;11.892;2023-04-25T16:01:46;11.30;99.90
8180;DHT22;4131;48.810;11.892;2023-04-25T16:04:15;11.20;99.90